createdAt,value
2023-03-02T00:09:31.488Z,99.9
2023-03-02T00:11:33.385Z,99.9
2023-03-02T00:17:42.231Z,99.9
2023-03-02T00:19:44.125Z,99.9
2023-03-02T00:21:46.029Z,99.9
2023-03-02T00:24:14.867Z,99.9
2023-03-02T00:26:16.732Z,99.9
2023-03-02T00:28:18.624Z,99.9
2023-03-02T00:30:23.764Z,99.9
2023-03-02T00:32:25.712Z,99.9
2023-03-02T00:34:27.545Z,99.9
2023-03-02T00:36:29.443Z,99.9
2023-03-02T00:38:31.316Z,99.9
2023-03-02T00:40:33.178Z,99.9
2023-03-02T00:42:35.066Z,99.9
2023-03-02T00:44:40.174Z,99.9
2023-03-02T00:46:42.118Z,99.9
2023-03-02T00:48:43.992Z,99.9
2023-03-02T00:50:45.856Z,99.9
2023-03-02T00:52:47.739Z,99.9
2023-03-02T00:54:49.633Z,99.9
2023-03-02T00:56:51.504Z,99.9
2023-03-02T00:58:56.605Z,99.9
2023-03-02T01:00:58.479Z,99.9
2023-03-02T01:03:00.496Z,99.9
2023-03-02T01:05:02.284Z,99.9
2023-03-02T01:07:04.145Z,99.9
2023-03-02T01:11:07.905Z,99.9
2023-03-02T01:13:13.058Z,99.9
2023-03-02T01:15:14.948Z,99.9
2023-03-02T01:17:16.877Z,99.9
2023-03-02T01:18:19.389Z,99.9
2023-03-02T01:20:21.249Z,99.9
2023-03-02T01:24:25.027Z,99.9
2023-03-02T01:28:31.995Z,99.9
2023-03-02T01:30:33.876Z,99.9
2023-03-02T01:32:35.852Z,99.9
2023-03-02T01:38:41.476Z,99.9
2023-03-02T01:40:46.518Z,99.9
2023-03-02T01:46:52.128Z,99.9
2023-03-02T01:48:54.008Z,99.9
2023-03-02T01:50:55.852Z,99.9
2023-03-02T01:52:57.756Z,99.9
2023-03-02T01:55:02.856Z,99.9
2023-03-02T01:57:04.733Z,99.9
2023-03-02T02:05:12.164Z,99.9
2023-03-02T02:11:21.020Z,99.9
2023-03-02T02:13:22.900Z,99.9
2023-03-02T02:14:25.400Z,99.9
2023-03-02T02:18:29.158Z,99.9
2023-03-02T02:20:31.002Z,99.9
2023-03-02T02:22:36.100Z,99.9
2023-03-02T02:24:37.987Z,99.9
2023-03-02T02:26:39.817Z,99.9
2023-03-02T02:28:41.676Z,99.9
2023-03-02T02:30:43.550Z,99.9
2023-03-02T02:32:45.494Z,99.9
2023-03-02T02:34:47.264Z,99.9
2023-03-02T02:36:52.344Z,99.9
2023-03-02T02:38:54.188Z,99.9
2023-03-02T02:53:10.386Z,99.9
2023-03-02T02:55:13.796Z,99.9
2023-03-02T02:57:15.616Z,99.9
2023-03-02T02:59:17.459Z,99.9
2023-03-02T03:01:19.366Z,99.9
2023-03-02T03:03:21.173Z,99.9
2023-03-02T03:05:26.232Z,99.9
2023-03-02T03:10:32.473Z,99.9
2023-03-02T03:12:34.349Z,99.9
2023-03-02T03:14:36.210Z,99.9
2023-03-02T03:16:38.069Z,99.9
2023-03-02T03:18:43.130Z,99.9
2023-03-02T03:20:44.993Z,99.9
2023-03-02T03:22:46.838Z,99.9
2023-03-02T03:24:48.671Z,99.9
2023-03-02T03:26:50.542Z,99.9
2023-03-02T03:28:52.396Z,99.9
2023-03-02T03:30:54.290Z,99.9
2023-03-02T03:32:59.357Z,99.9
2023-03-02T03:35:01.220Z,99.9
2023-03-02T03:37:03.045Z,99.9
2023-03-02T03:41:06.731Z,99.9
2023-03-02T03:47:15.467Z,99.9
2023-03-02T03:53:21.078Z,99.9
2023-03-02T03:55:22.894Z,99.9
2023-03-02T03:57:24.729Z,99.9
2023-03-02T03:59:26.592Z,99.9
2023-03-02T04:01:31.676Z,99.9
2023-03-02T04:05:35.363Z,99.9
2023-03-02T04:08:04.275Z,99.9
2023-03-02T04:10:06.147Z,99.9
2023-03-02T04:14:13.062Z,99.9
2023-03-02T04:16:14.940Z,99.9
2023-03-02T04:18:16.724Z,99.9
2023-03-02T04:20:18.571Z,99.9
2023-03-02T04:22:20.438Z,99.9
2023-03-02T04:24:22.269Z,99.9
2023-03-02T04:26:24.100Z,99.9
2023-03-02T04:30:31.023Z,99.9
2023-03-02T04:34:34.734Z,99.9
2023-03-02T04:42:45.336Z,99.9
2023-03-02T04:44:47.217Z,99.9
2023-03-02T04:48:50.875Z,99.9
2023-03-02T04:50:52.731Z,99.9
2023-03-02T04:52:54.582Z,99.9
2023-03-02T04:54:56.410Z,99.9
2023-03-02T04:57:01.479Z,99.9
2023-03-02T05:01:05.124Z,99.9
2023-03-02T05:02:07.672Z,99.9
2023-03-02T05:04:09.552Z,99.9
2023-03-02T05:06:11.348Z,99.9
2023-03-02T05:08:13.191Z,99.9
2023-03-02T05:10:18.270Z,99.9
2023-03-02T05:12:20.066Z,99.9
2023-03-02T05:14:21.897Z,99.9
2023-03-02T05:16:23.793Z,99.9
2023-03-02T05:18:25.564Z,99.9
2023-03-02T05:22:29.242Z,99.9
2023-03-02T05:24:34.331Z,99.9
2023-03-02T05:28:38.029Z,99.9
2023-03-02T05:30:39.855Z,99.9
2023-03-02T05:32:41.778Z,99.9
2023-03-02T05:34:43.561Z,99.9
2023-03-02T05:36:45.449Z,99.9
2023-03-02T05:38:50.423Z,99.9
2023-03-02T05:40:52.282Z,99.9
2023-03-02T05:42:54.123Z,99.9
2023-03-02T05:44:55.939Z,99.9
2023-03-02T05:46:57.834Z,99.9
2023-03-02T05:48:59.594Z,99.9
2023-03-02T05:51:01.450Z,99.9
2023-03-02T05:53:06.504Z,99.9
2023-03-02T05:58:12.715Z,99.9
2023-03-02T06:00:14.592Z,99.9
2023-03-02T06:02:16.479Z,99.9
2023-03-02T06:04:18.213Z,99.9
2023-03-02T06:06:23.281Z,99.9
2023-03-02T06:08:25.125Z,99.9
2023-03-02T06:10:26.971Z,99.9
2023-03-02T06:12:28.814Z,99.9
2023-03-02T06:14:30.630Z,99.9
2023-03-02T06:16:32.978Z,99.9
2023-03-02T06:18:34.314Z,99.9
2023-03-02T06:20:39.355Z,99.9
2023-03-02T06:22:41.295Z,99.9
2023-03-02T06:26:44.867Z,99.9
2023-03-02T06:28:52.885Z,99.9
2023-03-02T06:34:55.447Z,99.9
2023-03-02T06:36:57.215Z,99.9
2023-03-02T06:41:00.858Z,99.9
2023-03-02T06:43:04.220Z,99.9
2023-03-02T06:45:04.527Z,99.9
2023-03-02T06:54:17.593Z,99.9
2023-03-02T06:56:19.424Z,99.9
2023-03-02T07:00:25.437Z,99.9
2023-03-02T07:02:28.076Z,99.9
2023-03-02T07:04:29.924Z,99.9
2023-03-02T07:08:33.589Z,99.9
2023-03-02T07:10:35.417Z,99.9
2023-03-02T07:12:37.271Z,99.9
2023-03-02T07:14:39.058Z,99.9
2023-03-02T07:16:44.147Z,99.9
2023-03-02T07:18:45.935Z,99.9
2023-03-02T07:20:47.754Z,99.9
2023-03-02T07:22:49.579Z,99.9
2023-03-02T07:24:51.388Z,99.9
2023-03-02T07:28:55.081Z,99.9
2023-03-02T07:31:00.194Z,99.9
2023-03-02T07:33:01.909Z,99.9
2023-03-02T07:35:03.766Z,99.9
2023-03-02T07:37:05.621Z,99.9
2023-03-02T07:39:07.467Z,99.9
2023-03-02T07:41:09.390Z,99.9
2023-03-02T07:43:11.164Z,99.9
2023-03-02T07:45:16.241Z,99.9
2023-03-02T07:47:18.066Z,99.9
2023-03-02T07:49:19.901Z,99.9
2023-03-02T07:51:48.751Z,99.9
2023-03-02T07:53:50.585Z,99.9
2023-03-02T07:55:52.434Z,99.9
2023-03-02T07:57:57.510Z,99.9
2023-03-02T07:59:59.360Z,99.9
2023-03-02T08:08:06.752Z,99.9
2023-03-02T08:10:08.631Z,99.9
2023-03-02T08:12:13.685Z,99.9
2023-03-02T08:14:15.591Z,99.9
2023-03-02T08:16:18.348Z,99.9
2023-03-02T08:18:20.145Z,99.9
2023-03-02T08:20:21.994Z,99.9
2023-03-02T08:22:23.863Z,99.9
2023-03-02T08:24:25.722Z,99.9
2023-03-02T08:26:30.798Z,99.9
2023-03-02T08:28:32.696Z,99.9
2023-03-02T08:30:34.553Z,99.9
2023-03-02T08:34:38.280Z,99.9
2023-03-02T08:42:49.011Z,99.9
2023-03-02T08:44:50.879Z,99.9
2023-03-02T08:45:55.078Z,99.9
2023-03-02T08:47:56.830Z,99.9
2023-03-02T08:49:58.704Z,99.9
2023-03-02T08:52:00.613Z,99.9
2023-03-02T08:58:09.464Z,99.9
2023-03-02T09:00:11.357Z,99.9
2023-03-02T09:02:13.218Z,99.9
2023-03-02T09:04:15.196Z,99.9
2023-03-02T09:08:22.101Z,99.9
2023-03-02T09:10:23.986Z,99.9
2023-03-02T09:12:25.877Z,99.9
2023-03-02T09:14:27.800Z,99.9
2023-03-02T09:16:29.723Z,99.9
2023-03-02T09:18:31.582Z,99.9
2023-03-02T09:20:33.511Z,99.9
2023-03-02T09:22:38.601Z,99.9
2023-03-02T09:24:40.542Z,99.9
2023-03-02T09:26:42.435Z,99.9
2023-03-02T09:28:44.353Z,99.9
2023-03-02T09:30:46.261Z,99.9
2023-03-02T09:32:48.361Z,99.9
2023-03-02T09:34:50.134Z,99.9
2023-03-02T09:36:55.307Z,99.9
2023-03-02T09:40:59.214Z,99.9
2023-03-02T09:44:03.765Z,99.9
2023-03-02T09:48:07.694Z,99.9
2023-03-02T09:50:12.879Z,99.9
2023-03-02T09:52:14.863Z,99.9
2023-03-02T09:54:18.492Z,99.9
2023-03-02T09:56:18.831Z,99.9
2023-03-02T09:58:20.810Z,99.9
2023-03-02T10:00:22.762Z,99.9
2023-03-02T10:02:24.747Z,99.9
2023-03-02T10:04:30.177Z,99.9
2023-03-02T10:08:33.866Z,99.9
2023-03-02T10:10:35.827Z,99.9
2023-03-02T10:12:37.819Z,99.9
2023-03-02T10:14:39.824Z,99.9
2023-03-02T10:16:41.885Z,99.9
2023-03-02T10:18:47.060Z,99.9
2023-03-02T10:20:48.960Z,99.9
2023-03-02T10:22:50.953Z,99.9
2023-03-02T10:24:52.924Z,99.9
2023-03-02T10:28:56.910Z,99.9
2023-03-02T10:38:10.697Z,99.9
2023-03-02T10:40:12.681Z,99.9
2023-03-02T10:44:16.638Z,99.9
2023-03-02T10:46:21.905Z,99.9
2023-03-02T10:48:23.806Z,99.9
2023-03-02T10:54:29.735Z,99.9
2023-03-02T11:00:38.861Z,99.9
2023-03-02T11:02:40.830Z,99.9
2023-03-02T11:04:42.930Z,99.9
2023-03-02T11:10:48.755Z,99.9
2023-03-02T11:14:55.927Z,99.9
2023-03-02T11:16:57.921Z,99.9
2023-03-02T11:18:59.909Z,99.9
2023-03-02T11:21:01.887Z,99.9
2023-03-02T11:23:03.848Z,99.9
2023-03-02T11:31:14.986Z,99.9
2023-03-02T11:33:16.943Z,99.9
2023-03-02T11:35:45.826Z,99.9
2023-03-02T11:37:47.766Z,99.9
2023-03-02T11:39:55.578Z,99.9
2023-03-02T11:41:55.003Z,99.9
2023-03-02T11:43:56.977Z,99.9
2023-03-02T11:45:58.940Z,99.9
2023-03-02T11:48:03.504Z,99.9
2023-03-02T11:50:02.859Z,99.9
2023-03-02T11:52:04.870Z,99.8
2023-03-02T11:56:12.092Z,99.4
2023-03-02T11:58:14.091Z,98.6
2023-03-02T12:00:16.082Z,97.8
2023-03-02T12:04:20.024Z,97.1
2023-03-02T12:06:21.925Z,97
2023-03-02T12:08:23.796Z,96.8
2023-03-02T12:10:29.052Z,95
2023-03-02T12:12:31.038Z,94.9
2023-03-02T12:20:38.597Z,93.5
2023-03-02T12:22:40.495Z,94.1
2023-03-02T12:24:45.524Z,94.9
2023-03-02T12:26:47.534Z,95.1
2023-03-02T12:28:49.447Z,86.8
2023-03-02T12:29:51.926Z,87.5
2023-03-02T12:31:53.949Z,88.4
2023-03-02T12:33:55.719Z,89.2
2023-03-02T12:35:57.602Z,89.7
2023-03-02T12:38:02.778Z,89.9
2023-03-02T12:40:04.521Z,89.7
2023-03-02T12:46:10.274Z,93.8
2023-03-02T12:50:13.950Z,94.1
2023-03-02T12:52:19.384Z,88.4
2023-03-02T12:54:20.851Z,87.9
2023-03-02T12:56:22.748Z,88
2023-03-02T12:58:24.632Z,87.4
2023-03-02T13:00:26.518Z,87.3
2023-03-02T13:04:30.364Z,81.2
2023-03-02T13:08:37.202Z,84
2023-03-02T13:10:39.123Z,82.9
2023-03-02T13:12:40.941Z,82.9
2023-03-02T13:14:42.799Z,83
2023-03-02T13:16:44.750Z,74.8
2023-03-02T13:18:46.595Z,73.2
2023-03-02T13:20:51.603Z,80.7
2023-03-02T13:22:53.485Z,80.7
2023-03-02T13:24:55.837Z,82.3
2023-03-02T13:25:57.857Z,87.6
2023-03-02T13:27:59.755Z,87.8
2023-03-02T13:30:01.651Z,87.1
2023-03-02T13:32:03.564Z,86.2
2023-03-02T13:34:08.548Z,85.2
2023-03-02T13:36:10.420Z,85.8
2023-03-02T13:38:12.325Z,85.3
2023-03-02T13:40:14.202Z,84.7
2023-03-02T13:42:16.085Z,84.3
2023-03-02T13:44:17.967Z,84.1
2023-03-02T13:46:19.917Z,84.1
2023-03-02T13:48:24.841Z,83.3
2023-03-02T13:50:26.884Z,83.2
2023-03-02T13:52:28.661Z,82.6
2023-03-02T13:54:30.508Z,83.6
2023-03-02T13:58:34.307Z,87.8
2023-03-02T14:00:36.180Z,87.7
2023-03-02T14:02:41.196Z,84.6
2023-03-02T14:04:43.173Z,84.8
2023-03-02T14:10:48.751Z,84.1
2023-03-02T14:12:50.639Z,84.5
2023-03-02T14:16:57.543Z,89.6
2023-03-02T14:18:59.444Z,89.3
2023-03-02T14:21:01.348Z,89
2023-03-02T14:22:03.868Z,89
2023-03-02T14:26:07.636Z,88.9
2023-03-02T14:28:09.542Z,88.1
2023-03-02T14:30:14.685Z,83.6
2023-03-02T14:32:16.573Z,87.5
2023-03-02T14:34:18.362Z,87.1
2023-03-02T14:36:20.249Z,79.6
2023-03-02T14:38:23.706Z,79.7
2023-03-02T14:40:25.545Z,79.9
2023-03-02T14:42:27.441Z,80.1
2023-03-02T14:44:32.452Z,79.5
2023-03-02T14:46:34.474Z,70.1
2023-03-02T14:48:36.231Z,76.7
2023-03-02T14:50:38.150Z,76.2
2023-03-02T14:52:40.066Z,75.7
2023-03-02T14:54:41.897Z,74.1
2023-03-02T14:58:48.848Z,73.3
2023-03-02T15:00:50.719Z,71.6
2023-03-02T15:02:52.735Z,71.7
2023-03-02T15:04:56.134Z,71.2
2023-03-02T15:06:56.439Z,70.9
2023-03-02T15:08:58.343Z,73.3
2023-03-02T15:11:00.276Z,82.8
2023-03-02T15:13:05.366Z,86.6
2023-03-02T15:15:07.339Z,76.5
2023-03-02T15:17:09.145Z,88.5
2023-03-02T15:19:37.900Z,88.6
2023-03-02T15:23:41.897Z,90.3
2023-03-02T15:25:47.089Z,92
2023-03-02T15:27:49.104Z,94
2023-03-02T15:29:51.142Z,95.1
2023-03-02T15:33:55.101Z,96.3
2023-03-02T15:37:59.021Z,97
2023-03-02T15:40:04.269Z,97.7
2023-03-02T15:44:09.180Z,98.5
2023-03-02T15:46:11.211Z,99.1
2023-03-02T15:48:13.747Z,99.3
2023-03-02T15:50:15.199Z,99.6
2023-03-02T15:52:17.169Z,99.8
2023-03-02T16:00:28.311Z,99.9
2023-03-02T16:02:30.302Z,99.9
2023-03-02T16:04:32.300Z,99.9
2023-03-02T16:08:39.481Z,99.9
2023-03-02T16:13:46.026Z,99.9
2023-03-02T16:15:48.005Z,99.9
2023-03-02T16:17:49.972Z,99.9
2023-03-02T16:19:51.935Z,99.9
2023-03-02T16:21:57.167Z,99.9
2023-03-02T16:23:59.132Z,99.9
2023-03-02T16:26:01.123Z,99.9
2023-03-02T16:28:03.084Z,99.9
2023-03-02T16:30:05.130Z,99.9
2023-03-02T16:32:07.174Z,99.9
2023-03-02T16:34:09.096Z,99.9
2023-03-02T16:36:14.242Z,99.9
2023-03-02T16:38:16.149Z,99.9
2023-03-02T16:40:18.130Z,99.9
2023-03-02T16:42:20.135Z,99.9
2023-03-02T16:44:22.045Z,99.9
2023-03-02T16:46:24.107Z,99.9
2023-03-02T16:48:25.991Z,99.9
2023-03-02T16:50:31.210Z,99.9
2023-03-02T16:52:33.155Z,99.9
2023-03-02T16:54:35.122Z,99.9
2023-03-02T16:56:37.082Z,99.9
2023-03-02T16:58:39.023Z,99.9
2023-03-02T17:04:48.122Z,99.9
2023-03-02T17:09:54.637Z,99.9
2023-03-02T17:11:56.562Z,99.9
2023-03-02T17:13:58.502Z,99.9
2023-03-02T17:16:00.527Z,99.9
2023-03-02T17:18:05.659Z,99.9
2023-03-02T17:20:07.609Z,99.9
2023-03-02T17:22:09.566Z,99.9
2023-03-02T17:24:11.527Z,99.9
2023-03-02T17:26:13.458Z,99.9
2023-03-02T17:28:15.419Z,99.9
2023-03-02T17:30:17.369Z,99.9
2023-03-02T17:36:26.417Z,99.9
2023-03-02T17:38:28.353Z,99.9
2023-03-02T17:40:30.273Z,99.9
2023-03-02T17:42:32.235Z,99.9
2023-03-02T17:44:34.156Z,99.9
2023-03-02T17:46:39.394Z,99.9
2023-03-02T17:48:41.222Z,99.9
2023-03-02T17:50:43.159Z,99.9
2023-03-02T17:56:48.956Z,99.9
2023-03-02T17:58:50.889Z,99.9
2023-03-02T18:00:56.043Z,99.9
2023-03-02T18:02:58.031Z,99.9
2023-03-02T18:06:02.534Z,99.9
2023-03-02T18:08:04.425Z,99.9
2023-03-02T18:10:06.339Z,99.9
2023-03-02T18:12:08.274Z,99.9
2023-03-02T18:14:13.426Z,99.9
2023-03-02T18:16:15.473Z,99.9
2023-03-02T18:18:17.288Z,99.9
2023-03-02T18:20:19.245Z,99.9
2023-03-02T18:22:21.181Z,99.9
2023-03-02T18:24:23.069Z,99.9
2023-03-02T18:28:30.149Z,99.9
2023-03-02T18:30:32.086Z,99.9
2023-03-02T18:32:34.053Z,99.9
2023-03-02T18:34:35.944Z,99.9
2023-03-02T18:36:37.848Z,99.9
2023-03-02T18:38:39.764Z,99.9
2023-03-02T18:40:41.689Z,99.9
2023-03-02T18:44:48.748Z,99.9
2023-03-02T18:48:52.578Z,99.9
2023-03-02T18:50:54.539Z,99.9
2023-03-02T18:52:56.444Z,99.9
2023-03-02T18:54:58.323Z,99.9
2023-03-02T19:01:07.310Z,99.9
2023-03-02T19:03:36.201Z,99.9
2023-03-02T19:05:38.134Z,99.9
2023-03-02T19:07:40.030Z,99.9
2023-03-02T19:09:45.171Z,99.9
2023-03-02T19:11:47.086Z,99.9
2023-03-02T19:13:48.991Z,99.9
2023-03-02T19:15:50.905Z,99.9
2023-03-02T19:17:52.801Z,99.9
2023-03-02T19:19:54.713Z,99.9
2023-03-02T19:24:01.770Z,99.9
2023-03-02T19:30:07.465Z,99.9
2023-03-02T19:32:09.419Z,99.9
2023-03-02T19:36:13.189Z,99.9
2023-03-02T19:38:18.305Z,99.9
2023-03-02T19:40:20.194Z,99.9
2023-03-02T19:42:22.097Z,99.9
2023-03-02T19:44:24.023Z,99.9
2023-03-02T19:48:27.814Z,99.9
2023-03-02T19:50:29.740Z,99.9
2023-03-02T19:56:38.645Z,99.9
2023-03-02T19:57:41.218Z,99.9
2023-03-02T20:05:52.017Z,99.9
2023-03-02T20:07:53.911Z,99.9
2023-03-02T20:09:55.801Z,99.9
2023-03-02T20:11:57.697Z,99.9
2023-03-02T20:13:59.604Z,99.9
2023-03-02T20:16:01.514Z,99.9
2023-03-02T20:18:03.426Z,99.9
2023-03-02T20:20:08.525Z,99.9
2023-03-02T20:22:10.404Z,99.9
2023-03-02T20:24:12.289Z,99.9
2023-03-02T20:26:14.193Z,99.9
2023-03-02T20:28:16.088Z,99.9
2023-03-02T20:30:19.546Z,99.9
2023-03-02T20:32:21.529Z,99.9
2023-03-02T20:36:28.399Z,99.9
2023-03-02T20:38:30.292Z,99.9
2023-03-02T20:40:32.163Z,99.9
2023-03-02T20:42:34.069Z,99.9
2023-03-02T20:46:37.835Z,99.9
2023-03-02T20:48:42.964Z,99.9
2023-03-02T20:50:44.844Z,99.9
2023-03-02T20:52:46.705Z,99.9
2023-03-02T20:53:49.280Z,99.9
2023-03-02T21:02:00.128Z,99.9
2023-03-02T21:10:07.648Z,99.9
2023-03-02T21:12:09.524Z,99.9
2023-03-02T21:14:11.398Z,99.9
2023-03-02T21:16:16.565Z,99.9
2023-03-02T21:18:18.402Z,99.9
2023-03-02T21:20:20.308Z,99.9
2023-03-02T21:22:22.166Z,99.9
2023-03-02T21:24:24.071Z,99.9
2023-03-02T21:26:25.952Z,99.9
2023-03-02T21:28:27.846Z,99.9
2023-03-02T21:30:32.940Z,99.9
2023-03-02T21:36:38.635Z,99.9
2023-03-02T21:38:40.528Z,99.9
2023-03-02T21:40:42.403Z,99.9
2023-03-02T21:42:44.301Z,99.9
2023-03-02T21:44:49.409Z,99.9
2023-03-02T21:46:51.286Z,99.9
2023-03-02T21:48:53.179Z,99.9
2023-03-02T21:49:55.748Z,99.9
2023-03-02T21:51:57.636Z,99.9
2023-03-02T21:53:59.513Z,99.9
2023-03-02T22:00:08.395Z,99.9
2023-03-02T22:02:10.285Z,99.9
2023-03-02T22:04:12.143Z,99.9
2023-03-02T22:10:17.861Z,99.9
2023-03-02T22:12:22.913Z,99.9
2023-03-02T22:14:24.780Z,99.9
2023-03-02T22:16:26.729Z,99.9
2023-03-02T22:18:28.557Z,99.9
2023-03-02T22:20:30.430Z,99.9
2023-03-02T22:22:32.330Z,99.9
2023-03-02T22:24:34.175Z,99.9
2023-03-02T22:26:39.295Z,99.9
2023-03-02T22:28:41.173Z,99.9
2023-03-02T22:30:43.055Z,99.9
2023-03-02T22:32:44.922Z,99.9
2023-03-02T22:36:48.657Z,99.9
2023-03-02T22:38:50.559Z,99.9
2023-03-02T22:40:55.648Z,99.9
2023-03-02T22:42:57.516Z,99.9
2023-03-02T22:44:59.407Z,99.9
2023-03-02T22:47:28.359Z,99.9
2023-03-02T22:49:30.219Z,99.9
2023-03-02T22:51:32.093Z,99.9
2023-03-02T22:53:37.200Z,99.9
2023-03-02T22:55:39.077Z,99.9
2023-03-02T22:57:41.042Z,99.9
2023-03-02T22:59:42.843Z,99.9
2023-03-02T23:01:44.726Z,99.9
2023-03-02T23:03:46.594Z,99.9
2023-03-02T23:05:48.478Z,99.9
2023-03-02T23:07:53.589Z,99.9
2023-03-02T23:09:55.453Z,99.9
2023-03-02T23:11:57.343Z,99.9
2023-03-02T23:13:59.221Z,99.9
2023-03-02T23:16:01.091Z,99.9
2023-03-02T23:18:02.946Z,99.9
2023-03-02T23:20:04.853Z,99.9
2023-03-02T23:22:09.931Z,99.9
2023-03-02T23:24:11.837Z,99.9
2023-03-02T23:26:13.687Z,99.9
2023-03-02T23:28:15.575Z,99.9
2023-03-02T23:30:17.456Z,99.9
2023-03-02T23:32:19.628Z,99.9
2023-03-02T23:34:21.233Z,99.9
2023-03-02T23:36:26.291Z,99.9
2023-03-02T23:38:28.187Z,99.9
2023-03-02T23:40:30.074Z,99.9
2023-03-02T23:41:32.630Z,99.9
2023-03-02T23:45:36.374Z,99.9
2023-03-02T23:47:38.224Z,99.9
2023-03-02T23:49:44.098Z,99.9
2023-03-02T23:53:47.862Z,99.9
2023-03-02T23:55:49.731Z,99.9
